Time;durP1;ratioP1;P1;durP2;ratioP2;P2;SDS_P1;SDS_P2;PMS_P1;PMS_P2;Temp;Humidity;BMP_temperature;BMP_pressure;BME280_temperature;BME280_humidity;BME280_pressure;Samples;Min_cycle;Max_cycle;Signal;HPM_P1;HPM_P2
2023/12/26 00:00:31;;;;;;;3.20;0.70;;;;;;;8.00;100.00;99621.19;105612;1253;80686;-58
2023/12/26 00:03:20;;;;;;;2.20;0.70;;;;;;;8.05;100.00;99619.42;105511;1253;74027;-59
2023/12/26 00:05:48;;;;;;;1.20;0.70;;;;;;;8.09;100.00;99617.03;105579;1253;69176;-58
2023/12/26 00:08:17;;;;;;;3.10;0.70;;;;;;;8.12;100.00;99614.98;105574;1256;69206;-59
2023/12/26 00:10:45;;;;;;;1.30;0.60;;;;;;;8.16;100.00;99607.88;105571;1254;74189;-59
2023/12/26 00:13:13;;;;;;;1.40;0.60;;;;;;;8.17;100.00;99600.16;105529;1256;81657;-58
2023/12/26 00:15:41;;;;;;;1.50;0.60;;;;;;;8.18;100.00;99599.42;105508;1253;70165;-59
2023/12/26 00:18:10;;;;;;;1.20;0.60;;;;;;;8.21;100.00;99594.96;105541;1253;69118;-59
2023/12/26 00:20:39;;;;;;;1.40;0.60;;;;;;;8.22;100.00;99591.59;105584;1255;69205;-59
2023/12/26 00:23:08;;;;;;;2.20;0.50;;;;;;;8.23;100.00;99588.41;105643;1253;74022;-58
2023/12/26 00:25:37;;;;;;;2.00;0.50;;;;;;;8.24;100.00;99586.63;105587;1255;81492;-58
2023/12/26 00:28:05;;;;;;;1.20;0.60;;;;;;;8.26;100.00;99582.23;105600;1256;73068;-59
2023/12/26 00:30:33;;;;;;;2.10;0.50;;;;;;;8.26;100.00;99588.28;105471;1257;69854;-58
2023/12/26 00:33:03;;;;;;;1.30;0.50;;;;;;;8.29;100.00;99589.40;105587;1255;69581;-58
2023/12/26 00:35:32;;;;;;;1.80;0.40;;;;;;;8.32;100.00;99590.17;105484;1257;73280;-58
2023/12/26 00:38:02;;;;;;;1.30;0.40;;;;;;;8.33;100.00;99589.94;105617;1254;81024;-59
2023/12/26 00:40:30;;;;;;;1.60;0.40;;;;;;;8.36;100.00;99594.54;105523;1253;73048;-59
2023/12/26 00:42:58;;;;;;;1.10;0.40;;;;;;;8.39;100.00;99587.29;105470;1254;69120;-58
2023/12/26 00:45:26;;;;;;;1.80;0.40;;;;;;;8.40;100.00;99584.81;105558;1255;69235;-59
2023/12/26 00:47:57;;;;;;;1.50;0.50;;;;;;;8.42;100.00;99586.64;105563;1253;73317;-58
2023/12/26 00:50:25;;;;;;;1.50;0.50;;;;;;;8.43;100.00;99577.37;105556;1253;80208;-59
2023/12/26 00:52:54;;;;;;;1.10;0.40;;;;;;;8.44;100.00;99577.15;105536;1253;72038;-59
2023/12/26 00:55:25;;;;;;;1.10;0.60;;;;;;;8.46;100.00;99569.43;105655;1253;69129;-58
2023/12/26 00:57:53;;;;;;;1.40;0.40;;;;;;;8.47;100.00;99561.02;105578;1255;69182;-61
2023/12/26 01:00:22;;;;;;;1.90;0.70;;;;;;;8.48;100.00;99554.04;105602;1253;73010;-60
2023/12/26 01:02:51;;;;;;;1.80;0.60;;;;;;;8.50;100.00;99553.07;105558;1255;81912;-59
2023/12/26 01:05:20;;;;;;;1.20;0.80;;;;;;;8.50;100.00;99554.61;105604;1254;71780;-60
2023/12/26 01:07:49;;;;;;;0.90;0.50;;;;;;;8.51;100.00;99558.96;105607;1255;69129;-60
2023/12/26 01:10:19;;;;;;;1.40;0.60;;;;;;;8.53;100.00;99564.78;105568;1252;69289;-60
2023/12/26 01:12:47;;;;;;;0.60;0.50;;;;;;;8.54;100.00;99560.90;105600;1253;73138;-59
2023/12/26 01:15:15;;;;;;;3.20;0.60;;;;;;;8.56;100.00;99557.33;105523;1256;81741;-59
2023/12/26 01:17:44;;;;;;;1.70;0.40;;;;;;;8.56;100.00;99556.45;105460;1253;71663;-60
2023/12/26 01:20:12;;;;;;;2.10;0.60;;;;;;;8.57;100.00;99552.42;105492;1254;69127;-59
2023/12/26 01:22:40;;;;;;;0.60;0.40;;;;;;;8.58;100.00;99550.63;105553;1253;69209;-60
2023/12/26 01:25:09;;;;;;;1.30;0.50;;;;;;;8.61;100.00;99551.04;105565;1255;74871;-60
2023/12/26 01:27:37;;;;;;;0.60;0.50;;;;;;;8.63;100.00;99546.59;105416;1253;80632;-60
2023/12/26 01:30:07;;;;;;;1.10;0.60;;;;;;;8.66;100.00;99540.72;105519;1253;71963;-60
2023/12/26 01:32:35;;;;;;;0.80;0.50;;;;;;;8.68;100.00;99530.70;105558;1253;69705;-60
2023/12/26 01:35:04;;;;;;;1.40;0.50;;;;;;;8.68;100.00;99526.19;105553;1255;69192;-60
2023/12/26 01:37:32;;;;;;;1.00;0.40;;;;;;;8.68;100.00;99525.31;105634;1255;74167;-59
2023/12/26 01:40:00;;;;;;;0.70;0.50;;;;;;;8.68;100.00;99521.31;105652;1253;80800;-60
2023/12/26 01:42:28;;;;;;;1.20;0.70;;;;;;;8.67;100.00;99518.55;105558;1253;71652;-60
2023/12/26 01:44:57;;;;;;;1.10;0.50;;;;;;;8.66;100.00;99520.33;105417;1257;69150;-60
2023/12/26 01:47:25;;;;;;;1.20;0.50;;;;;;;8.66;100.00;99515.10;105517;1253;69129;-60
2023/12/26 01:49:53;;;;;;;1.10;0.60;;;;;;;8.66;100.00;99511.80;105628;1253;72674;-60
2023/12/26 01:52:22;;;;;;;2.20;0.80;;;;;;;8.66;100.00;99511.97;105516;1252;81683;-60
2023/12/26 01:54:50;;;;;;;2.00;0.70;;;;;;;8.66;100.00;99509.37;105511;1253;73114;-60
2023/12/26 01:57:19;;;;;;;1.30;0.40;;;;;;;8.65;100.00;99508.54;105546;1253;69147;-59
2023/12/26 01:59:47;;;;;;;0.50;0.40;;;;;;;8.64;100.00;99504.91;105519;1253;69110;-60
2023/12/26 02:02:17;;;;;;;0.80;0.40;;;;;;;8.64;100.00;99498.13;105592;1253;73002;-60
2023/12/26 02:04:45;;;;;;;0.80;0.30;;;;;;;8.64;100.00;99492.55;105568;1253;81962;-60
2023/12/26 02:07:13;;;;;;;1.00;0.20;;;;;;;8.64;100.00;99492.91;105567;1253;73003;-59
2023/12/26 02:09:42;;;;;;;1.20;0.30;;;;;;;8.64;100.00;99490.30;105558;1253;69118;-60
2023/12/26 02:12:10;;;;;;;0.60;0.20;;;;;;;8.63;100.00;99487.89;105414;1258;69602;-60
2023/12/26 02:14:39;;;;;;;0.70;0.20;;;;;;;8.63;100.00;99489.33;105557;1256;72249;-60
2023/12/26 02:17:13;;;;;;;0.40;0.20;;;;;;;8.63;100.00;99493.67;105482;1256;81418;-60
2023/12/26 02:19:42;;;;;;;0.50;0.20;;;;;;;8.60;100.00;99483.32;105573;1252;72802;-60
2023/12/26 02:22:10;;;;;;;0.60;0.60;;;;;;;8.58;100.00;99480.10;105517;1255;69103;-60
2023/12/26 02:24:42;;;;;;;1.30;0.40;;;;;;;8.56;100.00;99476.89;105486;1257;69198;-60
2023/12/26 02:27:19;;;;;;;0.20;0.20;;;;;;;8.53;100.00;99467.82;105539;1253;72947;-60
2023/12/26 02:29:50;;;;;;;1.40;0.70;;;;;;;8.49;100.00;99463.79;105636;1253;81395;-60
2023/12/26 02:32:18;;;;;;;;;;;;;;;8.44;100.00;99456.68;105571;1255;72511;-61
2023/12/26 02:34:50;;;;;;;2.10;0.80;;;;;;;8.40;100.00;99453.22;105497;1253;69181;-61
2023/12/26 02:37:18;;;;;;;1.30;0.80;;;;;;;8.35;100.00;99451.48;105573;1255;69158;-61
2023/12/26 02:39:46;;;;;;;2.20;1.20;;;;;;;8.33;100.00;99445.49;105628;1253;71356;-61
2023/12/26 02:42:17;;;;;;;1.90;1.30;;;;;;;8.31;100.00;99440.33;105415;1253;82591;-61
2023/12/26 02:44:44;;;;;;;;;;;;;;;8.29;100.00;99435.90;105474;1258;71661;-61
2023/12/26 02:47:14;;;;;;;2.50;1.30;;;;;;;8.28;100.00;99434.89;105561;1255;69328;-61
2023/12/26 02:49:42;;;;;;;2.50;1.40;;;;;;;8.27;100.00;99430.57;105599;1253;69192;-61
2023/12/26 02:52:11;;;;;;;2.00;1.10;;;;;;;8.27;100.00;99425.00;105466;1253;73527;-60
2023/12/26 02:54:39;;;;;;;2.00;1.30;;;;;;;8.26;100.00;99424.52;105488;1257;82155;-60
2023/12/26 02:57:08;;;;;;;2.50;1.50;;;;;;;8.27;100.00;99416.84;105514;1253;70635;-60
2023/12/26 02:59:36;;;;;;;2.90;1.60;;;;;;;8.26;100.00;99411.98;105521;1254;69592;-60
2023/12/26 03:02:04;;;;;;;2.20;1.50;;;;;;;8.26;100.00;99407.45;105512;1252;69168;-60
2023/12/26 03:04:35;;;;;;;2.10;1.80;;;;;;;8.26;100.00;99401.38;105587;1253;72989;-61
2023/12/26 03:07:03;;;;;;;2.60;1.80;;;;;;;8.26;100.00;99400.68;105610;1255;81729;-61
2023/12/26 03:09:31;;;;;;;3.80;1.90;;;;;;;8.26;100.00;99396.15;105601;1254;70702;-61
2023/12/26 03:11:59;;;;;;;2.10;1.70;;;;;;;8.27;100.00;99396.14;105381;1254;69186;-60
2023/12/26 03:14:28;;;;;;;2.80;2.30;;;;;;;8.26;100.00;99394.80;105622;1256;69178;-61
2023/12/26 03:16:56;;;;;;;3.10;2.10;;;;;;;8.26;100.00;99392.52;105442;1253;73816;-60
2023/12/26 03:19:24;;;;;;;2.20;2.00;;;;;;;8.25;100.00;99386.46;105487;1255;81372;-61
2023/12/26 03:21:54;;;;;;;3.00;2.00;;;;;;;8.25;100.00;99381.06;105566;1255;71386;-61
2023/12/26 03:24:22;;;;;;;2.30;1.80;;;;;;;8.25;100.00;99379.85;105526;1256;69172;-61
2023/12/26 03:26:50;;;;;;;2.90;1.80;;;;;;;8.24;100.00;99379.89;105506;1255;69099;-61
2023/12/26 03:29:20;;;;;;;2.00;1.50;;;;;;;8.24;100.00;99377.09;105469;1258;74186;-61
2023/12/26 03:31:49;;;;;;;2.30;1.10;;;;;;;8.24;100.00;99375.01;105552;1255;83067;-61
2023/12/26 03:34:17;;;;;;;1.20;1.10;;;;;;;8.26;100.00;99367.13;105572;1253;71323;-61
2023/12/26 03:36:48;;;;;;;4.40;1.00;;;;;;;8.27;100.00;99363.05;105533;1253;69118;-61
2023/12/26 03:39:17;;;;;;;2.00;1.20;;;;;;;8.30;100.00;99360.49;105567;1253;69113;-61
2023/12/26 03:41:48;;;;;;;1.70;0.90;;;;;;;8.32;100.00;99348.20;105539;1251;73991;-60
2023/12/26 03:44:18;;;;;;;0.80;0.70;;;;;;;8.36;100.00;99346.14;105575;1253;81435;-60
2023/12/26 03:46:46;;;;;;;0.90;0.50;;;;;;;8.38;100.00;99342.02;105443;1257;71477;-60
2023/12/26 03:49:15;;;;;;;1.20;0.60;;;;;;;8.43;100.00;99330.70;105532;1254;69112;-60
2023/12/26 03:51:44;;;;;;;0.60;0.50;;;;;;;8.49;100.00;99328.34;105571;1253;69286;-60
2023/12/26 03:54:12;;;;;;;0.50;0.40;;;;;;;8.57;100.00;99321.37;105618;1253;73122;-60
2023/12/26 03:56:40;;;;;;;1.20;0.40;;;;;;;8.62;100.00;99330.39;105426;1257;81990;-60
2023/12/26 03:59:09;;;;;;;0.70;0.50;;;;;;;8.67;100.00;99330.27;105593;1256;72771;-60
2023/12/26 04:01:37;;;;;;;1.70;0.30;;;;;;;8.74;100.00;99325.26;105484;1258;69212;-60
2023/12/26 04:04:05;;;;;;;1.00;0.40;;;;;;;8.79;100.00;99327.47;105485;1253;69176;-60
2023/12/26 04:06:34;;;;;;;2.60;0.40;;;;;;;8.82;100.00;99316.35;105400;1253;73628;-60
2023/12/26 04:09:04;;;;;;;0.40;0.40;;;;;;;8.85;100.00;99316.21;105540;1256;81594;-60
2023/12/26 04:11:33;;;;;;;1.20;0.40;;;;;;;8.88;100.00;99315.88;105566;1253;71685;-60
2023/12/26 04:14:01;;;;;;;0.40;0.30;;;;;;;8.93;100.00;99303.66;105564;1253;69187;-60
2023/12/26 04:16:29;;;;;;;0.30;0.30;;;;;;;8.93;100.00;99313.36;105469;1254;69205;-60
2023/12/26 04:18:58;;;;;;;0.70;0.40;;;;;;;8.95;100.00;99314.86;105540;1253;73251;-60
2023/12/26 04:21:27;;;;;;;0.70;0.40;;;;;;;8.98;100.00;99296.61;105531;1253;81809;-60
2023/12/26 04:23:55;;;;;;;0.70;0.50;;;;;;;8.99;100.00;99305.99;105410;1253;72954;-60
2023/12/26 04:26:23;;;;;;;0.40;0.30;;;;;;;8.99;100.00;99294.64;105478;1256;69106;-60
2023/12/26 04:28:52;;;;;;;0.60;0.40;;;;;;;9.01;100.00;99301.54;105468;1253;69106;-60
2023/12/26 04:31:20;;;;;;;0.30;0.30;;;;;;;9.03;100.00;99287.13;105396;1257;73946;-60
2023/12/26 04:33:48;;;;;;;0.50;0.30;;;;;;;9.03;100.00;99292.89;105428;1256;83298;-60
2023/12/26 04:36:17;;;;;;;0.20;0.20;;;;;;;9.04;100.00;99298.40;105555;1253;71765;-60
2023/12/26 04:38:45;;;;;;;0.50;0.30;;;;;;;9.08;100.00;99282.55;105427;1257;69175;-60
2023/12/26 04:41:14;;;;;;;0.40;0.30;;;;;;;9.08;100.00;99287.73;105529;1255;69196;-60
2023/12/26 04:43:42;;;;;;;1.00;0.40;;;;;;;9.09;100.00;99290.83;105427;1257;72976;-60
2023/12/26 04:46:20;;;;;;;0.90;0.30;;;;;;;9.14;100.00;99273.71;105451;1257;81534;-60
2023/12/26 04:48:49;;;;;;;0.20;0.20;;;;;;;9.15;100.00;99283.60;105484;1258;71206;-60
2023/12/26 04:51:18;;;;;;;1.20;0.30;;;;;;;9.14;100.00;99289.70;105486;1256;70591;-60
2023/12/26 04:53:49;;;;;;;0.60;0.20;;;;;;;9.16;100.00;99276.22;105541;1256;69047;-60
2023/12/26 04:56:18;;;;;;;0.80;0.30;;;;;;;9.18;100.00;99280.30;105489;1253;71495;-60
2023/12/26 04:58:49;;;;;;;0.90;0.40;;;;;;;9.20;100.00;99289.98;105539;1252;82913;-60
2023/12/26 05:01:18;;;;;;;0.50;0.30;;;;;;;9.22;100.00;99280.27;105485;1257;73853;-60
2023/12/26 05:03:47;;;;;;;1.90;0.30;;;;;;;9.25;100.00;99280.34;105498;1253;69139;-60
2023/12/26 05:06:19;;;;;;;0.30;0.20;;;;;;;9.26;100.00;99272.79;105468;1257;69221;-60
2023/12/26 05:08:48;;;;;;;0.20;0.20;;;;;;;9.27;100.00;99268.92;105516;1254;72858;-60
2023/12/26 05:11:24;;;;;;;0.80;0.40;;;;;;;9.28;100.00;99267.94;105418;1258;81836;-60
2023/12/26 05:13:52;;;;;;;1.40;0.30;;;;;;;9.31;100.00;99277.55;105441;1253;72161;-60
2023/12/26 05:16:21;;;;;;;1.00;0.20;;;;;;;9.33;100.00;99270.48;105501;1254;69182;-60
2023/12/26 05:18:49;;;;;;;0.30;0.10;;;;;;;9.36;100.00;99267.91;105496;1253;69176;-60
2023/12/26 05:21:20;;;;;;;0.30;0.30;;;;;;;9.36;100.00;99283.77;105558;1253;74170;-60
2023/12/26 05:23:48;;;;;;;2.00;0.30;;;;;;;9.39;100.00;99281.20;105460;1258;81659;-60
2023/12/26 05:26:17;;;;;;;0.40;0.40;;;;;;;9.41;100.00;99271.87;105614;1253;72269;-60
2023/12/26 05:28:47;;;;;;;0.20;0.20;;;;;;;9.41;100.00;99278.32;105604;1253;69122;-60
2023/12/26 05:31:19;;;;;;;0.30;0.30;;;;;;;9.43;100.00;99277.85;105468;1253;69190;-60
2023/12/26 05:33:48;;;;;;;0.20;0.20;;;;;;;9.43;100.00;99276.09;105503;1253;72267;-60
2023/12/26 05:36:17;;;;;;;0.30;0.20;;;;;;;9.44;100.00;99290.02;105522;1255;81484;-60
2023/12/26 05:38:46;;;;;;;0.70;0.20;;;;;;;9.47;100.00;99283.77;105536;1255;71712;-61
2023/12/26 05:41:14;;;;;;;1.80;0.20;;;;;;;9.50;100.00;99272.45;105592;1255;69176;-60
2023/12/26 05:43:43;;;;;;;0.20;0.20;;;;;;;9.52;100.00;99282.83;105511;1256;69140;-60
2023/12/26 05:46:12;;;;;;;0.20;0.20;;;;;;;9.55;100.00;99279.34;105533;1256;73436;-60
2023/12/26 05:48:43;;;;;;;0.50;0.10;;;;;;;9.57;100.00;99280.44;105539;1255;81524;-60
2023/12/26 05:51:12;;;;;;;0.30;0.30;;;;;;;9.65;100.00;99283.71;105480;1252;72858;-60
2023/12/26 05:53:40;;;;;;;0.30;0.20;;;;;;;9.77;100.00;99286.76;105446;1256;69240;-60
2023/12/26 05:56:08;;;;;;;0.20;0.20;;;;;;;9.86;100.00;99285.91;105507;1253;69199;-60
2023/12/26 05:58:39;;;;;;;0.30;0.20;;;;;;;9.91;100.00;99299.84;105542;1253;72909;-60
2023/12/26 06:01:10;;;;;;;1.10;0.20;;;;;;;9.97;100.00;99288.67;105514;1253;81624;-60
2023/12/26 06:03:39;;;;;;;0.20;0.20;;;;;;;10.01;100.00;99295.27;105447;1257;72412;-60
2023/12/26 06:06:14;;;;;;;0.10;0.10;;;;;;;10.04;100.00;99295.65;105514;1255;69171;-60
2023/12/26 06:08:43;;;;;;;0.60;0.10;;;;;;;10.09;100.00;99307.27;105508;1258;69195;-60
2023/12/26 06:11:12;;;;;;;0.20;0.20;;;;;;;10.13;100.00;99297.63;105475;1258;74562;-60
2023/12/26 06:13:40;;;;;;;0.20;0.20;;;;;;;10.12;100.00;99294.17;105490;1256;81412;-60
2023/12/26 06:16:09;;;;;;;0.10;0.10;;;;;;;10.12;100.00;99302.54;105419;1258;71002;-60
2023/12/26 06:18:39;;;;;;;0.10;0.10;;;;;;;10.14;100.00;99297.92;105482;1255;69688;-59
2023/12/26 06:21:07;;;;;;;0.10;0.10;;;;;;;10.13;100.00;99292.94;105582;1255;69129;-60
2023/12/26 06:23:35;;;;;;;0.20;0.10;;;;;;;10.13;100.00;99295.70;105419;1253;71585;-60
2023/12/26 06:26:03;;;;;;;0.10;0.10;;;;;;;10.12;100.00;99294.89;105489;1253;81525;-59
2023/12/26 06:28:36;;;;;;;0.20;0.10;;;;;;;10.09;100.00;99292.77;105502;1253;73629;-60
2023/12/26 06:31:04;;;;;;;2.40;0.20;;;;;;;10.08;100.00;99300.32;105542;1253;69098;-59
2023/12/26 06:33:33;;;;;;;0.20;0.10;;;;;;;10.09;100.00;99297.14;105510;1253;69177;-60
2023/12/26 06:36:02;;;;;;;0.20;0.20;;;;;;;10.08;100.00;99303.98;105463;1256;74371;-59
2023/12/26 06:38:30;;;;;;;0.40;0.20;;;;;;;10.08;100.00;99292.84;105450;1255;82804;-59
2023/12/26 06:40:58;;;;;;;0.10;0.10;;;;;;;10.06;100.00;99294.66;105513;1252;70608;-59
2023/12/26 06:43:27;;;;;;;1.00;0.30;;;;;;;10.04;100.00;99307.70;105454;1258;69199;-60
2023/12/26 06:45:55;;;;;;;0.10;0.10;;;;;;;10.04;100.00;99303.16;105498;1258;69247;-59
2023/12/26 06:48:24;;;;;;;0.90;0.30;;;;;;;10.05;100.00;99307.95;105593;1256;71997;-59
2023/12/26 06:50:53;;;;;;;0.40;0.20;;;;;;;10.08;100.00;99305.74;105529;1255;82830;-59
2023/12/26 06:53:21;;;;;;;2.00;0.30;;;;;;;10.09;100.00;99309.73;105514;1258;73824;-60
2023/12/26 06:55:49;;;;;;;1.10;0.20;;;;;;;10.11;100.00;99313.28;105522;1253;69173;-60
2023/12/26 06:58:18;;;;;;;0.20;0.20;;;;;;;10.15;100.00;99307.66;105567;1255;69159;-60
2023/12/26 07:00:47;;;;;;;0.30;0.20;;;;;;;10.15;100.00;99310.23;105504;1253;72681;-60
2023/12/26 07:03:15;;;;;;;0.30;0.20;;;;;;;10.17;100.00;99312.08;105460;1255;81556;-59
2023/12/26 07:05:44;;;;;;;0.30;0.20;;;;;;;10.18;100.00;99315.86;105522;1253;72980;-60
2023/12/26 07:08:12;;;;;;;1.20;0.30;;;;;;;10.22;100.00;99326.14;105437;1253;69197;-60
2023/12/26 07:10:40;;;;;;;0.30;0.20;;;;;;;10.24;100.00;99327.95;105489;1254;69196;-59
2023/12/26 07:13:09;;;;;;;0.30;0.20;;;;;;;10.27;100.00;99329.17;105449;1253;72823;-59
2023/12/26 07:15:37;;;;;;;1.30;0.40;;;;;;;10.28;100.00;99326.02;105452;1253;82520;-60
2023/12/26 07:18:05;;;;;;;0.50;0.30;;;;;;;10.29;100.00;99325.43;105473;1253;70810;-60
2023/12/26 07:20:34;;;;;;;0.40;0.20;;;;;;;10.32;100.00;99332.79;105555;1254;69117;-59
2023/12/26 07:23:03;;;;;;;0.30;0.10;;;;;;;10.35;100.00;99339.27;105503;1253;69196;-59
2023/12/26 07:25:31;;;;;;;0.20;0.20;;;;;;;10.38;100.00;99350.64;105530;1255;72992;-60
2023/12/26 07:27:59;;;;;;;0.50;0.20;;;;;;;10.40;100.00;99344.09;105496;1255;82622;-60
2023/12/26 07:30:27;;;;;;;0.50;0.30;;;;;;;10.40;100.00;99363.08;105509;1253;71129;-60
2023/12/26 07:32:56;;;;;;;1.70;0.20;;;;;;;10.41;100.00;99355.34;105474;1255;69119;-60
2023/12/26 07:35:25;;;;;;;0.60;0.20;;;;;;;10.41;100.00;99354.11;105541;1253;69839;-60
2023/12/26 07:37:53;;;;;;;0.40;0.20;;;;;;;10.41;100.00;99345.91;105568;1255;73063;-60
2023/12/26 07:40:21;;;;;;;0.20;0.20;;;;;;;10.40;100.00;99360.67;105536;1255;81683;-60
2023/12/26 07:42:49;;;;;;;0.40;0.20;;;;;;;10.42;100.00;99364.41;105426;1253;70543;-59
2023/12/26 07:45:22;;;;;;;0.20;0.20;;;;;;;10.45;100.00;99357.77;105513;1253;69116;-60
2023/12/26 07:47:52;;;;;;;0.40;0.20;;;;;;;10.45;100.00;99359.84;105525;1255;69168;-60
2023/12/26 07:50:22;;;;;;;0.20;0.20;;;;;;;10.44;100.00;99370.39;105537;1253;73311;-60
2023/12/26 07:52:50;;;;;;;0.30;0.20;;;;;;;10.44;100.00;99372.32;105534;1255;81964;-60
2023/12/26 07:55:18;;;;;;;0.80;0.20;;;;;;;10.46;100.00;99384.59;105467;1253;72885;-60
2023/12/26 07:57:47;;;;;;;0.50;0.30;;;;;;;10.48;100.00;99386.79;105478;1253;69133;-59
2023/12/26 08:00:15;;;;;;;0.80;0.20;;;;;;;10.49;100.00;99392.13;105564;1251;69149;-60
2023/12/26 08:02:43;;;;;;;0.10;0.10;;;;;;;10.50;100.00;99388.39;105559;1253;72688;-60
2023/12/26 08:05:12;;;;;;;0.20;0.20;;;;;;;10.52;100.00;99387.26;105493;1256;82141;-60
2023/12/26 08:07:40;;;;;;;0.20;0.20;;;;;;;10.52;100.00;99398.26;105464;1256;71929;-59
2023/12/26 08:10:09;;;;;;;0.80;0.30;;;;;;;10.55;100.00;99399.67;105485;1254;69250;-59
2023/12/26 08:12:37;;;;;;;0.40;0.10;;;;;;;10.56;100.00;99407.35;105561;1255;69195;-59
2023/12/26 08:15:09;;;;;;;1.20;0.30;;;;;;;10.56;100.00;99410.29;105561;1256;72842;-59
2023/12/26 08:17:37;;;;;;;;;;;;;;;10.58;100.00;99416.83;105541;1253;82632;-60
2023/12/26 08:20:06;;;;;;;0.20;0.20;;;;;;;10.60;100.00;99417.55;105441;1253;71862;-59
2023/12/26 08:22:34;;;;;;;0.10;0.10;;;;;;;10.62;100.00;99431.95;105601;1252;69189;-60
2023/12/26 08:25:03;;;;;;;0.10;0.10;;;;;;;10.64;100.00;99445.82;105530;1253;69189;-59
2023/12/26 08:27:31;;;;;;;0.50;0.20;;;;;;;10.68;100.00;99443.73;105636;1255;72205;-60
2023/12/26 08:29:59;;;;;;;1.00;0.10;;;;;;;10.71;100.00;99440.42;105545;1256;82361;-60
2023/12/26 08:32:27;;;;;;;0.10;0.10;;;;;;;10.75;100.00;99447.21;105492;1255;72051;-60
2023/12/26 08:34:56;;;;;;;0.40;0.10;;;;;;;10.77;100.00;99446.73;105544;1255;69139;-59
2023/12/26 08:37:24;;;;;;;0.40;0.10;;;;;;;10.79;100.00;99446.64;105460;1256;69187;-60
2023/12/26 08:39:52;;;;;;;0.20;0.10;;;;;;;10.81;100.00;99456.33;105509;1253;72982;-60
2023/12/26 08:42:20;;;;;;;0.60;0.20;;;;;;;10.81;100.00;99458.77;105481;1256;81477;-59
2023/12/26 08:44:48;;;;;;;0.80;0.20;;;;;;;10.83;100.00;99465.32;105494;1253;71763;-59
2023/12/26 08:47:17;;;;;;;0.50;0.30;;;;;;;10.86;100.00;99459.54;105493;1255;69141;-59
2023/12/26 08:49:45;;;;;;;0.40;0.10;;;;;;;10.88;100.00;99474.64;105480;1255;69187;-60
2023/12/26 08:52:13;;;;;;;0.30;0.00;;;;;;;10.90;100.00;99475.73;105568;1256;73023;-59
2023/12/26 08:54:43;;;;;;;0.30;0.00;;;;;;;10.92;100.00;99474.42;105489;1255;81143;-59
2023/12/26 08:57:11;;;;;;;0.10;0.10;;;;;;;10.92;100.00;99489.09;105539;1254;71840;-60
2023/12/26 08:59:39;;;;;;;0.60;0.10;;;;;;;10.93;100.00;99473.33;105507;1256;69110;-59
2023/12/26 09:02:07;;;;;;;0.20;0.10;;;;;;;10.93;100.00;99490.94;105554;1256;69214;-59
2023/12/26 09:04:35;;;;;;;0.10;0.10;;;;;;;10.93;100.00;99483.09;105524;1253;71952;-60
2023/12/26 09:07:04;;;;;;;0.30;0.10;;;;;;;10.94;99.41;99502.12;105514;1256;81530;-60
2023/12/26 09:09:32;;;;;;;0.90;0.50;;;;;;;10.96;99.67;99496.78;105461;1253;72198;-60
2023/12/26 09:12:00;;;;;;;0.20;0.10;;;;;;;10.97;99.81;99511.73;105498;1253;69194;-60
2023/12/26 09:14:28;;;;;;;0.10;0.10;;;;;;;10.97;99.64;99511.55;105476;1253;69121;-60
2023/12/26 09:16:56;;;;;;;0.20;0.10;;;;;;;10.98;99.67;99520.13;105496;1253;72080;-59
2023/12/26 09:19:25;;;;;;;0.20;0.10;;;;;;;10.98;99.54;99527.60;105486;1256;83017;-59
2023/12/26 09:21:53;;;;;;;0.60;0.20;;;;;;;10.98;99.47;99536.19;105549;1255;71901;-59
2023/12/26 09:24:21;;;;;;;0.10;0.10;;;;;;;10.95;99.59;99542.08;105486;1256;69135;-59
2023/12/26 09:26:49;;;;;;;1.20;0.10;;;;;;;10.91;99.61;99554.33;105486;1255;69230;-59
2023/12/26 09:29:18;;;;;;;0.50;0.20;;;;;;;10.87;99.11;99553.34;105526;1256;73639;-60
2023/12/26 09:31:46;;;;;;;0.40;0.10;;;;;;;10.82;98.73;99557.43;105494;1255;82702;-60
2023/12/26 09:34:14;;;;;;;0.00;0.00;;;;;;;10.78;98.94;99566.40;105462;1256;70282;-59
2023/12/26 09:36:43;;;;;;;0.20;0.00;;;;;;;10.72;99.02;99568.80;105470;1256;69231;-60
2023/12/26 09:39:11;;;;;;;0.00;0.00;;;;;;;10.67;99.24;99570.63;105512;1255;69180;-60
2023/12/26 09:41:41;;;;;;;0.90;0.10;;;;;;;10.61;99.35;99580.54;105528;1254;72674;-60
2023/12/26 09:44:10;;;;;;;1.00;0.30;;;;;;;10.53;99.55;99617.62;105532;1256;82622;-62
2023/12/26 09:46:38;;;;;;;4.10;0.50;;;;;;;10.32;99.34;99634.33;105498;1256;71036;-61
2023/12/26 09:49:06;;;;;;;0.40;0.20;;;;;;;9.84;98.58;99635.55;105426;1259;69291;-62
2023/12/26 09:51:45;;;;;;;1.50;0.50;;;;;;;9.32;98.71;99633.17;105608;1255;69132;-63
2023/12/26 09:54:16;;;;;;;0.60;0.30;;;;;;;9.01;99.63;99642.52;105631;1258;72845;-62
2023/12/26 09:56:45;;;;;;;0.70;0.20;;;;;;;8.81;100.00;99647.73;105584;1253;81545;-63
2023/12/26 09:59:14;;;;;;;1.50;0.30;;;;;;;8.68;100.00;99661.67;105489;1254;72415;-62
2023/12/26 10:01:43;;;;;;;0.40;0.30;;;;;;;8.57;100.00;99665.95;105501;1255;69491;-63
2023/12/26 10:04:12;;;;;;;0.60;0.20;;;;;;;8.43;100.00;99652.08;105495;1255;69169;-62
2023/12/26 10:06:40;;;;;;;1.90;0.40;;;;;;;8.24;100.00;99658.88;105548;1256;72660;-62
2023/12/26 10:09:09;;;;;;;1.30;0.30;;;;;;;8.06;100.00;99665.33;105570;1256;81385;-62
2023/12/26 10:11:42;;;;;;;0.60;0.10;;;;;;;7.95;100.00;99656.17;105566;1255;72326;-62
2023/12/26 10:14:11;;;;;;;0.20;0.00;;;;;;;7.92;100.00;99640.64;105502;1254;69177;-61
2023/12/26 10:16:39;;;;;;;0.50;0.10;;;;;;;7.93;100.00;99648.41;105571;1253;69081;-61
2023/12/26 10:19:13;;;;;;;0.50;0.20;;;;;;;7.96;100.00;99658.94;105519;1254;74815;-61
2023/12/26 10:21:42;;;;;;;0.30;0.10;;;;;;;7.96;100.00;99650.95;105485;1257;80856;-62
2023/12/26 10:24:10;;;;;;;1.60;0.20;;;;;;;7.97;100.00;99650.55;105543;1253;71715;-61
2023/12/26 10:26:38;;;;;;;0.30;0.20;;;;;;;7.98;100.00;99654.30;105506;1256;69119;-61
2023/12/26 10:29:11;;;;;;;0.20;0.20;;;;;;;8.01;100.00;99657.33;105467;1256;69963;-61
2023/12/26 10:31:43;;;;;;;1.10;0.20;;;;;;;8.04;100.00;99667.48;105454;1258;73779;-61
2023/12/26 10:34:17;;;;;;;0.50;0.30;;;;;;;8.08;100.00;99666.81;105506;1256;81604;-61
2023/12/26 10:36:49;;;;;;;1.00;0.20;;;;;;;8.13;100.00;99674.10;105513;1256;72036;-61
2023/12/26 10:39:18;;;;;;;0.20;0.20;;;;;;;8.17;100.00;99661.59;105524;1253;69215;-61
2023/12/26 10:41:48;;;;;;;0.90;0.20;;;;;;;8.22;100.00;99658.95;105356;1254;168745;-61
2023/12/26 10:44:17;;;;;;;0.30;0.10;;;;;;;8.28;100.00;99669.34;105540;1255;72346;-61
2023/12/26 10:46:47;;;;;;;1.30;0.30;;;;;;;8.30;100.00;99660.73;105546;1253;81988;-61
2023/12/26 10:49:23;;;;;;;0.30;0.10;;;;;;;8.37;100.00;99659.75;105520;1255;73446;-61
2023/12/26 10:51:55;;;;;;;1.30;0.20;;;;;;;8.55;100.00;99662.54;105539;1256;69125;-61
2023/12/26 10:54:24;;;;;;;0.60;0.20;;;;;;;8.68;100.00;99670.89;105509;1256;69202;-61
2023/12/26 10:56:54;;;;;;;0.40;0.20;;;;;;;8.74;100.00;99669.79;105453;1257;73350;-61
2023/12/26 10:59:22;;;;;;;1.00;0.30;;;;;;;8.88;100.00;99679.85;105445;1253;83577;-60
2023/12/26 11:01:50;;;;;;;0.40;0.20;;;;;;;8.92;100.00;99681.41;105561;1262;72029;-61
2023/12/26 11:04:21;;;;;;;0.60;0.20;;;;;;;8.96;100.00;99679.70;105456;1257;69098;-60
2023/12/26 11:06:49;;;;;;;0.40;0.10;;;;;;;9.00;100.00;99692.40;105490;1255;69222;-60
2023/12/26 11:09:18;;;;;;;1.40;0.30;;;;;;;8.99;100.00;99703.10;105529;1254;72674;-60
2023/12/26 11:11:46;;;;;;;0.80;0.20;;;;;;;8.91;100.00;99703.06;105538;1256;82280;-60
2023/12/26 11:14:15;;;;;;;1.10;0.50;;;;;;;8.84;100.00;99697.08;105571;1253;71779;-60
2023/12/26 11:16:43;;;;;;;1.50;0.50;;;;;;;8.77;100.00;99708.89;105498;1256;69153;-60
2023/12/26 11:19:11;;;;;;;1.80;0.30;;;;;;;8.73;100.00;99687.43;105485;1256;69182;-60
2023/12/26 11:21:41;;;;;;;1.60;0.40;;;;;;;8.75;100.00;99696.23;105529;1259;74146;-60
2023/12/26 11:24:09;;;;;;;1.30;0.20;;;;;;;8.73;100.00;99709.55;105548;1256;81391;-60
2023/12/26 11:26:37;;;;;;;0.90;0.20;;;;;;;8.72;100.00;99720.56;105577;1265;70250;-60
2023/12/26 11:29:06;;;;;;;0.50;0.20;;;;;;;8.67;100.00;99718.65;105524;1259;69173;-61
2023/12/26 11:31:36;;;;;;;1.70;0.40;;;;;;;8.63;100.00;99703.52;105483;1259;69143;-58